sensor_id;sensor_type;location;lat;lon;timestamp;P1;durP1;ratioP1;P2;durP2;ratioP2
8536;SDS011;4306;50.210;10.628;2023-09-19T00:00:06;2.95;;;0.80;;
8536;SDS011;4306;50.210;10.628;2023-09-19T00:02:33;1.27;;;0.50;;
8536;SDS011;4306;50.210;10.628;2023-09-19T00:05:01;1.17;;;0.50;;
8536;SDS011;4306;50.210;10.628;2023-09-19T00:07:30;0.85;;;0.52;;
8536;SDS011;4306;50.210;10.628;2023-09-19T00:09:57;1.65;;;0.73;;
8536;SDS011;4306;50.210;10.628;2023-09-19T00:12:23;1.90;;;0.70;;
8536;SDS011;4306;50.210;10.628;2023-09-19T00:14:52;1.45;;;0.50;;
8536;SDS011;4306;50.210;10.628;2023-09-19T00:17:19;1.00;;;0.57;;
8536;SDS011;4306;50.210;10.628;2023-09-19T00:19:45;1.38;;;0.50;;
8536;SDS011;4306;50.210;10.628;2023-09-19T00:22:16;1.27;;;0.70;;
8536;SDS011;4306;50.210;10.628;2023-09-19T00:24:44;1.35;;;0.65;;
8536;SDS011;4306;50.210;10.628;2023-09-19T00:27:11;2.42;;;0.60;;
8536;SDS011;4306;50.210;10.628;2023-09-19T00:29:38;1.80;;;0.70;;
8536;SDS011;4306;50.210;10.628;2023-09-19T00:32:08;4.22;;;0.60;;
8536;SDS011;4306;50.210;10.628;2023-09-19T00:34:36;0.82;;;0.50;;
8536;SDS011;4306;50.210;10.628;2023-09-19T00:37:03;0.65;;;0.55;;
8536;SDS011;4306;50.210;10.628;2023-09-19T00:39:30;2.08;;;0.70;;
8536;SDS011;4306;50.210;10.628;2023-09-19T00:41:57;2.05;;;0.70;;
8536;SDS011;4306;50.210;10.628;2023-09-19T00:44:29;0.85;;;0.60;;
8536;SDS011;4306;50.210;10.628;2023-09-19T00:46:56;1.13;;;0.60;;
8536;SDS011;4306;50.210;10.628;2023-09-19T00:49:25;1.05;;;0.80;;
8536;SDS011;4306;50.210;10.628;2023-09-19T00:51:52;0.95;;;0.60;;
8536;SDS011;4306;50.210;10.628;2023-09-19T00:54:20;1.70;;;0.82;;
8536;SDS011;4306;50.210;10.628;2023-09-19T00:56:47;3.45;;;0.80;;
8536;SDS011;4306;50.210;10.628;2023-09-19T00:59:16;1.67;;;0.85;;
8536;SDS011;4306;50.210;10.628;2023-09-19T01:01:42;2.00;;;0.90;;
8536;SDS011;4306;50.210;10.628;2023-09-19T01:04:11;2.33;;;0.60;;
8536;SDS011;4306;50.210;10.628;2023-09-19T01:06:39;1.33;;;0.65;;
8536;SDS011;4306;50.210;10.628;2023-09-19T01:09:06;1.65;;;0.70;;
8536;SDS011;4306;50.210;10.628;2023-09-19T01:11:35;1.05;;;0.80;;
8536;SDS011;4306;50.210;10.628;2023-09-19T01:14:10;3.20;;;0.85;;
8536;SDS011;4306;50.210;10.628;2023-09-19T01:16:42;2.50;;;0.82;;
8536;SDS011;4306;50.210;10.628;2023-09-19T01:22:24;1.50;;;0.60;;
8536;SDS011;4306;50.210;10.628;2023-09-19T01:31:06;1.00;;;0.80;;
8536;SDS011;4306;50.210;10.628;2023-09-19T01:33:54;2.53;;;0.77;;
8536;SDS011;4306;50.210;10.628;2023-09-19T01:36:24;2.30;;;0.93;;
8536;SDS011;4306;50.210;10.628;2023-09-19T01:38:52;1.38;;;0.80;;
8536;SDS011;4306;50.210;10.628;2023-09-19T01:41:21;1.98;;;0.77;;
8536;SDS011;4306;50.210;10.628;2023-09-19T01:43:56;1.65;;;0.90;;
8536;SDS011;4306;50.210;10.628;2023-09-19T01:46:33;2.40;;;0.75;;
8536;SDS011;4306;50.210;10.628;2023-09-19T01:49:07;1.60;;;0.90;;
8536;SDS011;4306;50.210;10.628;2023-09-19T01:51:46;2.15;;;0.85;;
8536;SDS011;4306;50.210;10.628;2023-09-19T01:54:21;0.90;;;0.60;;
8536;SDS011;4306;50.210;10.628;2023-09-19T01:56:55;2.05;;;0.73;;
8536;SDS011;4306;50.210;10.628;2023-09-19T01:59:30;1.25;;;0.80;;
8536;SDS011;4306;50.210;10.628;2023-09-19T02:02:03;1.95;;;0.90;;
8536;SDS011;4306;50.210;10.628;2023-09-19T02:04:32;1.77;;;0.90;;
8536;SDS011;4306;50.210;10.628;2023-09-19T02:07:00;3.25;;;0.90;;
8536;SDS011;4306;50.210;10.628;2023-09-19T02:09:27;2.08;;;0.82;;
8536;SDS011;4306;50.210;10.628;2023-09-19T02:11:54;1.30;;;0.80;;
8536;SDS011;4306;50.210;10.628;2023-09-19T02:14:22;1.15;;;0.70;;
8536;SDS011;4306;50.210;10.628;2023-09-19T02:16:48;1.95;;;0.90;;
8536;SDS011;4306;50.210;10.628;2023-09-19T02:19:17;2.28;;;0.93;;
8536;SDS011;4306;50.210;10.628;2023-09-19T02:21:46;1.27;;;0.70;;
8536;SDS011;4306;50.210;10.628;2023-09-19T02:24:13;1.67;;;0.68;;
8536;SDS011;4306;50.210;10.628;2023-09-19T02:26:41;0.85;;;0.60;;
8536;SDS011;4306;50.210;10.628;2023-09-19T02:29:08;1.40;;;0.90;;
8536;SDS011;4306;50.210;10.628;2023-09-19T02:31:35;2.38;;;0.82;;
8536;SDS011;4306;50.210;10.628;2023-09-19T02:34:02;1.98;;;0.80;;
8536;SDS011;4306;50.210;10.628;2023-09-19T02:36:33;2.28;;;0.98;;
8536;SDS011;4306;50.210;10.628;2023-09-19T02:39:00;2.50;;;0.95;;
8536;SDS011;4306;50.210;10.628;2023-09-19T02:41:29;1.58;;;1.00;;
8536;SDS011;4306;50.210;10.628;2023-09-19T02:43:58;1.30;;;0.90;;
8536;SDS011;4306;50.210;10.628;2023-09-19T02:46:26;1.45;;;0.80;;
8536;SDS011;4306;50.210;10.628;2023-09-19T02:48:53;2.40;;;1.08;;
8536;SDS011;4306;50.210;10.628;2023-09-19T02:51:21;2.28;;;1.00;;
8536;SDS011;4306;50.210;10.628;2023-09-19T02:53:49;2.50;;;0.80;;
8536;SDS011;4306;50.210;10.628;2023-09-19T02:56:17;2.72;;;1.00;;
8536;SDS011;4306;50.210;10.628;2023-09-19T02:58:44;3.70;;;1.17;;
8536;SDS011;4306;50.210;10.628;2023-09-19T03:01:13;1.40;;;1.00;;
8536;SDS011;4306;50.210;10.628;2023-09-19T03:03:40;5.47;;;1.02;;
8536;SDS011;4306;50.210;10.628;2023-09-19T03:06:07;3.92;;;1.10;;
8536;SDS011;4306;50.210;10.628;2023-09-19T03:08:35;1.38;;;1.00;;
8536;SDS011;4306;50.210;10.628;2023-09-19T03:11:05;3.03;;;0.93;;
8536;SDS011;4306;50.210;10.628;2023-09-19T03:13:36;2.42;;;1.00;;
8536;SDS011;4306;50.210;10.628;2023-09-19T03:16:05;6.32;;;1.20;;
8536;SDS011;4306;50.210;10.628;2023-09-19T03:18:31;3.55;;;1.10;;
8536;SDS011;4306;50.210;10.628;2023-09-19T03:21:00;2.17;;;0.85;;
8536;SDS011;4306;50.210;10.628;2023-09-19T03:23:27;4.25;;;1.13;;
8536;SDS011;4306;50.210;10.628;2023-09-19T03:25:55;3.70;;;1.02;;
8536;SDS011;4306;50.210;10.628;2023-09-19T03:28:25;2.65;;;1.00;;
8536;SDS011;4306;50.210;10.628;2023-09-19T03:30:59;2.20;;;1.05;;
8536;SDS011;4306;50.210;10.628;2023-09-19T03:33:25;4.35;;;1.10;;
8536;SDS011;4306;50.210;10.628;2023-09-19T03:35:53;2.72;;;1.23;;
8536;SDS011;4306;50.210;10.628;2023-09-19T03:38:23;1.60;;;1.00;;
8536;SDS011;4306;50.210;10.628;2023-09-19T03:40:50;2.65;;;1.20;;
8536;SDS011;4306;50.210;10.628;2023-09-19T03:43:17;3.58;;;1.17;;
8536;SDS011;4306;50.210;10.628;2023-09-19T03:45:45;2.10;;;1.08;;
8536;SDS011;4306;50.210;10.628;2023-09-19T03:48:13;5.72;;;1.27;;
8536;SDS011;4306;50.210;10.628;2023-09-19T03:50:40;2.17;;;1.23;;
8536;SDS011;4306;50.210;10.628;2023-09-19T03:53:09;1.63;;;1.10;;
8536;SDS011;4306;50.210;10.628;2023-09-19T03:55:36;2.75;;;1.15;;
8536;SDS011;4306;50.210;10.628;2023-09-19T03:58:03;5.25;;;1.30;;
8536;SDS011;4306;50.210;10.628;2023-09-19T04:00:30;2.75;;;1.40;;
8536;SDS011;4306;50.210;10.628;2023-09-19T04:03:00;2.58;;;1.00;;
8536;SDS011;4306;50.210;10.628;2023-09-19T04:05:31;2.70;;;0.95;;
8536;SDS011;4306;50.210;10.628;2023-09-19T04:07:58;2.13;;;1.30;;
8536;SDS011;4306;50.210;10.628;2023-09-19T04:10:25;3.80;;;1.48;;
8536;SDS011;4306;50.210;10.628;2023-09-19T04:12:53;1.65;;;1.00;;
8536;SDS011;4306;50.210;10.628;2023-09-19T04:15:21;2.72;;;1.30;;
8536;SDS011;4306;50.210;10.628;2023-09-19T04:17:48;3.40;;;1.30;;
8536;SDS011;4306;50.210;10.628;2023-09-19T04:20:18;4.45;;;1.30;;
8536;SDS011;4306;50.210;10.628;2023-09-19T04:22:48;2.38;;;1.33;;
8536;SDS011;4306;50.210;10.628;2023-09-19T04:25:15;3.92;;;1.42;;
8536;SDS011;4306;50.210;10.628;2023-09-19T04:27:43;2.35;;;1.25;;
8536;SDS011;4306;50.210;10.628;2023-09-19T04:30:11;2.78;;;1.83;;
8536;SDS011;4306;50.210;10.628;2023-09-19T04:32:40;3.95;;;1.50;;
8536;SDS011;4306;50.210;10.628;2023-09-19T04:35:07;6.53;;;1.60;;
8536;SDS011;4306;50.210;10.628;2023-09-19T04:37:38;3.83;;;1.50;;
8536;SDS011;4306;50.210;10.628;2023-09-19T04:40:07;2.75;;;1.67;;
8536;SDS011;4306;50.210;10.628;2023-09-19T04:42:38;3.22;;;1.23;;
8536;SDS011;4306;50.210;10.628;2023-09-19T04:45:06;3.78;;;1.48;;
8536;SDS011;4306;50.210;10.628;2023-09-19T04:47:34;3.15;;;1.45;;
8536;SDS011;4306;50.210;10.628;2023-09-19T04:50:03;5.03;;;1.42;;
8536;SDS011;4306;50.210;10.628;2023-09-19T04:52:33;3.50;;;1.48;;
8536;SDS011;4306;50.210;10.628;2023-09-19T04:55:01;3.70;;;1.65;;
8536;SDS011;4306;50.210;10.628;2023-09-19T04:57:29;3.80;;;1.40;;
8536;SDS011;4306;50.210;10.628;2023-09-19T04:59:56;2.50;;;1.42;;
8536;SDS011;4306;50.210;10.628;2023-09-19T05:02:23;2.80;;;1.63;;
8536;SDS011;4306;50.210;10.628;2023-09-19T05:04:51;3.53;;;1.20;;
8536;SDS011;4306;50.210;10.628;2023-09-19T05:07:19;3.50;;;1.42;;
8536;SDS011;4306;50.210;10.628;2023-09-19T05:09:51;3.22;;;1.70;;
8536;SDS011;4306;50.210;10.628;2023-09-19T05:12:19;6.20;;;1.70;;
8536;SDS011;4306;50.210;10.628;2023-09-19T05:14:46;2.83;;;1.33;;
8536;SDS011;4306;50.210;10.628;2023-09-19T05:17:13;3.33;;;1.65;;
8536;SDS011;4306;50.210;10.628;2023-09-19T05:19:42;3.90;;;1.73;;
8536;SDS011;4306;50.210;10.628;2023-09-19T05:22:09;3.50;;;1.65;;
8536;SDS011;4306;50.210;10.628;2023-09-19T05:24:37;3.08;;;2.08;;
8536;SDS011;4306;50.210;10.628;2023-09-19T05:27:05;4.13;;;2.03;;
8536;SDS011;4306;50.210;10.628;2023-09-19T05:29:34;3.85;;;1.95;;
8536;SDS011;4306;50.210;10.628;2023-09-19T05:32:01;3.55;;;1.67;;
8536;SDS011;4306;50.210;10.628;2023-09-19T05:34:29;3.50;;;1.77;;
8536;SDS011;4306;50.210;10.628;2023-09-19T05:36:56;3.28;;;2.13;;
8536;SDS011;4306;50.210;10.628;2023-09-19T05:39:23;5.65;;;2.30;;
8536;SDS011;4306;50.210;10.628;2023-09-19T05:41:50;3.55;;;2.08;;
8536;SDS011;4306;50.210;10.628;2023-09-19T05:44:17;4.00;;;2.30;;
8536;SDS011;4306;50.210;10.628;2023-09-19T05:46:45;3.22;;;2.10;;
8536;SDS011;4306;50.210;10.628;2023-09-19T05:49:13;3.42;;;1.92;;
8536;SDS011;4306;50.210;10.628;2023-09-19T05:51:40;2.75;;;1.73;;
8536;SDS011;4306;50.210;10.628;2023-09-19T05:54:08;4.60;;;2.33;;
8536;SDS011;4306;50.210;10.628;2023-09-19T05:56:36;4.00;;;2.15;;
8536;SDS011;4306;50.210;10.628;2023-09-19T05:59:03;3.80;;;2.20;;
8536;SDS011;4306;50.210;10.628;2023-09-19T06:01:30;5.97;;;2.60;;
8536;SDS011;4306;50.210;10.628;2023-09-19T06:03:58;4.68;;;2.08;;
8536;SDS011;4306;50.210;10.628;2023-09-19T06:06:26;5.00;;;2.00;;
8536;SDS011;4306;50.210;10.628;2023-09-19T06:08:53;3.45;;;2.20;;
8536;SDS011;4306;50.210;10.628;2023-09-19T06:11:20;3.75;;;2.10;;
8536;SDS011;4306;50.210;10.628;2023-09-19T06:13:51;5.38;;;2.10;;
8536;SDS011;4306;50.210;10.628;2023-09-19T06:16:18;4.93;;;1.85;;
8536;SDS011;4306;50.210;10.628;2023-09-19T06:18:45;5.65;;;1.90;;
8536;SDS011;4306;50.210;10.628;2023-09-19T06:21:14;3.17;;;1.77;;
8536;SDS011;4306;50.210;10.628;2023-09-19T06:23:41;2.63;;;1.50;;
8536;SDS011;4306;50.210;10.628;2023-09-19T06:26:08;2.97;;;1.75;;
8536;SDS011;4306;50.210;10.628;2023-09-19T06:28:35;4.82;;;1.77;;
8536;SDS011;4306;50.210;10.628;2023-09-19T06:31:02;4.40;;;1.65;;
8536;SDS011;4306;50.210;10.628;2023-09-19T06:33:34;2.47;;;1.50;;
8536;SDS011;4306;50.210;10.628;2023-09-19T06:36:03;4.68;;;1.63;;
8536;SDS011;4306;50.210;10.628;2023-09-19T06:38:32;3.55;;;1.35;;
8536;SDS011;4306;50.210;10.628;2023-09-19T06:41:01;4.65;;;1.45;;
8536;SDS011;4306;50.210;10.628;2023-09-19T06:43:30;3.83;;;1.58;;
8536;SDS011;4306;50.210;10.628;2023-09-19T06:45:57;2.28;;;1.20;;
8536;SDS011;4306;50.210;10.628;2023-09-19T06:48:25;4.68;;;1.60;;
8536;SDS011;4306;50.210;10.628;2023-09-19T06:50:54;2.35;;;1.30;;
8536;SDS011;4306;50.210;10.628;2023-09-19T06:53:21;2.88;;;1.25;;
8536;SDS011;4306;50.210;10.628;2023-09-19T06:55:51;4.85;;;1.70;;
8536;SDS011;4306;50.210;10.628;2023-09-19T06:58:18;3.83;;;1.65;;
8536;SDS011;4306;50.210;10.628;2023-09-19T07:00:45;4.13;;;1.70;;
8536;SDS011;4306;50.210;10.628;2023-09-19T07:03:13;3.47;;;1.80;;
8536;SDS011;4306;50.210;10.628;2023-09-19T07:05:41;3.55;;;1.50;;
8536;SDS011;4306;50.210;10.628;2023-09-19T07:08:09;3.15;;;1.70;;
8536;SDS011;4306;50.210;10.628;2023-09-19T07:10:37;4.88;;;1.80;;
8536;SDS011;4306;50.210;10.628;2023-09-19T07:13:07;2.95;;;1.98;;
8536;SDS011;4306;50.210;10.628;2023-09-19T07:15:36;3.17;;;1.45;;
8536;SDS011;4306;50.210;10.628;2023-09-19T07:18:11;3.00;;;1.55;;
8536;SDS011;4306;50.210;10.628;2023-09-19T07:20:39;4.28;;;1.75;;
8536;SDS011;4306;50.210;10.628;2023-09-19T07:23:14;2.92;;;1.20;;
8536;SDS011;4306;50.210;10.628;2023-09-19T07:25:41;4.88;;;1.60;;
8536;SDS011;4306;50.210;10.628;2023-09-19T07:28:09;3.42;;;1.60;;
8536;SDS011;4306;50.210;10.628;2023-09-19T07:30:36;2.47;;;1.35;;
8536;SDS011;4306;50.210;10.628;2023-09-19T07:33:04;2.50;;;1.30;;
8536;SDS011;4306;50.210;10.628;2023-09-19T07:35:31;2.90;;;1.40;;
8536;SDS011;4306;50.210;10.628;2023-09-19T07:37:59;2.75;;;1.48;;
8536;SDS011;4306;50.210;10.628;2023-09-19T07:40:27;3.00;;;1.30;;
8536;SDS011;4306;50.210;10.628;2023-09-19T07:42:55;3.35;;;1.63;;
8536;SDS011;4306;50.210;10.628;2023-09-19T07:45:23;3.35;;;1.60;;
8536;SDS011;4306;50.210;10.628;2023-09-19T07:47:50;4.07;;;1.73;;
8536;SDS011;4306;50.210;10.628;2023-09-19T07:50:18;2.70;;;1.40;;
8536;SDS011;4306;50.210;10.628;2023-09-19T07:52:45;5.82;;;1.65;;
8536;SDS011;4306;50.210;10.628;2023-09-19T07:55:12;3.55;;;1.63;;
8536;SDS011;4306;50.210;10.628;2023-09-19T07:57:42;3.47;;;1.30;;
8536;SDS011;4306;50.210;10.628;2023-09-19T08:00:09;2.55;;;1.27;;
8536;SDS011;4306;50.210;10.628;2023-09-19T08:02:38;3.53;;;1.70;;
8536;SDS011;4306;50.210;10.628;2023-09-19T08:05:07;3.03;;;1.30;;
8536;SDS011;4306;50.210;10.628;2023-09-19T08:07:36;2.88;;;1.20;;
8536;SDS011;4306;50.210;10.628;2023-09-19T08:10:03;2.63;;;1.40;;
8536;SDS011;4306;50.210;10.628;2023-09-19T08:12:33;4.95;;;1.25;;
8536;SDS011;4306;50.210;10.628;2023-09-19T08:15:00;3.25;;;1.50;;
8536;SDS011;4306;50.210;10.628;2023-09-19T08:17:28;3.55;;;1.17;;
8536;SDS011;4306;50.210;10.628;2023-09-19T08:19:56;2.70;;;1.35;;
8536;SDS011;4306;50.210;10.628;2023-09-19T08:22:23;2.60;;;1.38;;
8536;SDS011;4306;50.210;10.628;2023-09-19T08:24:50;5.22;;;1.45;;
8536;SDS011;4306;50.210;10.628;2023-09-19T08:27:17;4.13;;;1.25;;
8536;SDS011;4306;50.210;10.628;2023-09-19T08:29:44;1.85;;;1.10;;
8536;SDS011;4306;50.210;10.628;2023-09-19T08:32:12;3.45;;;1.30;;
8536;SDS011;4306;50.210;10.628;2023-09-19T08:34:39;1.90;;;1.10;;
8536;SDS011;4306;50.210;10.628;2023-09-19T08:37:07;3.15;;;1.42;;
8536;SDS011;4306;50.210;10.628;2023-09-19T08:39:35;2.80;;;1.17;;
8536;SDS011;4306;50.210;10.628;2023-09-19T08:42:03;3.92;;;1.25;;
8536;SDS011;4306;50.210;10.628;2023-09-19T08:44:30;3.55;;;1.70;;
8536;SDS011;4306;50.210;10.628;2023-09-19T08:47:04;4.03;;;1.30;;
8536;SDS011;4306;50.210;10.628;2023-09-19T08:49:36;2.60;;;1.10;;
8536;SDS011;4306;50.210;10.628;2023-09-19T08:52:16;2.50;;;1.10;;
8536;SDS011;4306;50.210;10.628;2023-09-19T08:54:48;2.53;;;1.20;;
8536;SDS011;4306;50.210;10.628;2023-09-19T08:57:17;2.45;;;1.20;;
8536;SDS011;4306;50.210;10.628;2023-09-19T08:59:47;3.80;;;1.10;;
8536;SDS011;4306;50.210;10.628;2023-09-19T09:02:15;1.90;;;1.10;;
8536;SDS011;4306;50.210;10.628;2023-09-19T09:04:44;1.52;;;0.90;;
8536;SDS011;4306;50.210;10.628;2023-09-19T09:07:14;2.60;;;1.27;;
8536;SDS011;4306;50.210;10.628;2023-09-19T09:09:41;2.08;;;1.25;;
8536;SDS011;4306;50.210;10.628;2023-09-19T09:12:10;3.67;;;1.05;;
8536;SDS011;4306;50.210;10.628;2023-09-19T09:14:38;3.65;;;1.15;;
8536;SDS011;4306;50.210;10.628;2023-09-19T09:17:06;2.25;;;1.00;;
8536;SDS011;4306;50.210;10.628;2023-09-19T09:19:34;2.70;;;1.20;;
8536;SDS011;4306;50.210;10.628;2023-09-19T09:22:07;3.00;;;1.15;;
8536;SDS011;4306;50.210;10.628;2023-09-19T09:24:36;3.13;;;1.10;;
8536;SDS011;4306;50.210;10.628;2023-09-19T09:27:05;3.00;;;1.20;;
8536;SDS011;4306;50.210;10.628;2023-09-19T09:29:40;2.45;;;1.00;;
8536;SDS011;4306;50.210;10.628;2023-09-19T09:32:18;3.88;;;1.20;;
8536;SDS011;4306;50.210;10.628;2023-09-19T09:34:47;2.22;;;1.10;;
8536;SDS011;4306;50.210;10.628;2023-09-19T09:37:16;3.67;;;1.10;;
8536;SDS011;4306;50.210;10.628;2023-09-19T09:39:50;2.83;;;1.10;;
8536;SDS011;4306;50.210;10.628;2023-09-19T09:45:13;8.93;;;1.20;;
8536;SDS011;4306;50.210;10.628;2023-09-19T09:47:43;3.70;;;1.30;;
8536;SDS011;4306;50.210;10.628;2023-09-19T09:50:28;3.42;;;1.20;;
8536;SDS011;4306;50.210;10.628;2023-09-19T09:53:22;4.28;;;1.52;;
8536;SDS011;4306;50.210;10.628;2023-09-19T09:56:01;2.53;;;1.20;;
8536;SDS011;4306;50.210;10.628;2023-09-19T09:58:31;2.67;;;1.10;;
8536;SDS011;4306;50.210;10.628;2023-09-19T10:00:58;2.90;;;1.10;;
8536;SDS011;4306;50.210;10.628;2023-09-19T10:03:32;2.75;;;1.08;;
8536;SDS011;4306;50.210;10.628;2023-09-19T10:06:03;4.45;;;1.50;;
8536;SDS011;4306;50.210;10.628;2023-09-19T10:08:57;3.45;;;1.30;;
8536;SDS011;4306;50.210;10.628;2023-09-19T10:11:32;2.40;;;1.30;;
8536;SDS011;4306;50.210;10.628;2023-09-19T10:14:02;2.45;;;1.20;;
8536;SDS011;4306;50.210;10.628;2023-09-19T10:16:31;4.40;;;1.55;;
8536;SDS011;4306;50.210;10.628;2023-09-19T10:19:01;2.80;;;1.42;;
8536;SDS011;4306;50.210;10.628;2023-09-19T10:21:35;4.78;;;1.38;;
8536;SDS011;4306;50.210;10.628;2023-09-19T10:24:20;2.92;;;1.42;;
8536;SDS011;4306;50.210;10.628;2023-09-19T10:26:51;4.03;;;1.30;;
8536;SDS011;4306;50.210;10.628;2023-09-19T10:29:19;3.55;;;1.40;;
8536;SDS011;4306;50.210;10.628;2023-09-19T10:31:48;4.50;;;2.00;;
8536;SDS011;4306;50.210;10.628;2023-09-19T10:34:18;5.57;;;1.55;;
8536;SDS011;4306;50.210;10.628;2023-09-19T10:36:47;2.97;;;1.60;;
8536;SDS011;4306;50.210;10.628;2023-09-19T10:39:17;3.67;;;1.65;;
8536;SDS011;4306;50.210;10.628;2023-09-19T10:41:47;3.80;;;1.38;;
8536;SDS011;4306;50.210;10.628;2023-09-19T10:44:21;4.97;;;1.50;;
8536;SDS011;4306;50.210;10.628;2023-09-19T10:46:50;4.53;;;1.40;;
8536;SDS011;4306;50.210;10.628;2023-09-19T10:49:19;4.38;;;1.38;;
8536;SDS011;4306;50.210;10.628;2023-09-19T10:51:47;4.47;;;1.60;;
8536;SDS011;4306;50.210;10.628;2023-09-19T10:54:16;4.63;;;1.80;;
8536;SDS011;4306;50.210;10.628;2023-09-19T10:56:46;2.58;;;1.40;;
8536;SDS011;4306;50.210;10.628;2023-09-19T10:59:18;2.70;;;1.58;;
8536;SDS011;4306;50.210;10.628;2023-09-19T11:01:47;5.65;;;1.55;;
8536;SDS011;4306;50.210;10.628;2023-09-19T11:04:20;5.50;;;1.90;;
8536;SDS011;4306;50.210;10.628;2023-09-19T11:07:00;3.63;;;1.60;;
8536;SDS011;4306;50.210;10.628;2023-09-19T11:09:43;4.90;;;2.38;;
8536;SDS011;4306;50.210;10.628;2023-09-19T11:12:12;5.13;;;1.67;;
8536;SDS011;4306;50.210;10.628;2023-09-19T11:14:41;3.30;;;1.45;;
8536;SDS011;4306;50.210;10.628;2023-09-19T11:20:23;3.70;;;1.83;;
8536;SDS011;4306;50.210;10.628;2023-09-19T11:25:50;3.97;;;1.60;;
8536;SDS011;4306;50.210;10.628;2023-09-19T11:28:31;6.65;;;1.60;;
8536;SDS011;4306;50.210;10.628;2023-09-19T11:40:27;5.13;;;1.90;;
8536;SDS011;4306;50.210;10.628;2023-09-19T11:42:55;4.03;;;1.70;;
8536;SDS011;4306;50.210;10.628;2023-09-19T11:48:30;3.13;;;1.77;;
8536;SDS011;4306;50.210;10.628;2023-09-19T11:51:13;4.50;;;1.85;;
8536;SDS011;4306;50.210;10.628;2023-09-19T11:53:45;4.18;;;1.60;;
8536;SDS011;4306;50.210;10.628;2023-09-19T11:56:15;5.40;;;1.90;;
8536;SDS011;4306;50.210;10.628;2023-09-19T11:58:43;3.65;;;1.90;;
8536;SDS011;4306;50.210;10.628;2023-09-19T12:01:12;7.45;;;1.95;;
8536;SDS011;4306;50.210;10.628;2023-09-19T12:03:43;3.00;;;1.63;;
8536;SDS011;4306;50.210;10.628;2023-09-19T12:06:14;5.65;;;2.00;;
8536;SDS011;4306;50.210;10.628;2023-09-19T12:08:42;4.07;;;2.03;;
8536;SDS011;4306;50.210;10.628;2023-09-19T12:11:12;3.50;;;1.65;;
8536;SDS011;4306;50.210;10.628;2023-09-19T12:13:41;4.20;;;1.80;;
8536;SDS011;4306;50.210;10.628;2023-09-19T12:16:14;5.07;;;1.92;;
8536;SDS011;4306;50.210;10.628;2023-09-19T12:18:43;4.05;;;1.95;;
8536;SDS011;4306;50.210;10.628;2023-09-19T12:21:22;3.92;;;1.85;;
8536;SDS011;4306;50.210;10.628;2023-09-19T12:23:59;4.97;;;1.60;;
8536;SDS011;4306;50.210;10.628;2023-09-19T12:26:41;3.75;;;1.60;;
8536;SDS011;4306;50.210;10.628;2023-09-19T12:29:13;4.28;;;1.85;;
8536;SDS011;4306;50.210;10.628;2023-09-19T12:31:49;4.88;;;1.88;;
8536;SDS011;4306;50.210;10.628;2023-09-19T12:34:20;3.75;;;1.75;;
8536;SDS011;4306;50.210;10.628;2023-09-19T12:36:48;4.80;;;1.90;;
8536;SDS011;4306;50.210;10.628;2023-09-19T12:39:24;4.47;;;1.83;;
8536;SDS011;4306;50.210;10.628;2023-09-19T12:41:52;4.20;;;1.67;;
8536;SDS011;4306;50.210;10.628;2023-09-19T12:44:19;3.83;;;1.63;;
8536;SDS011;4306;50.210;10.628;2023-09-19T12:46:49;3.70;;;1.85;;
8536;SDS011;4306;50.210;10.628;2023-09-19T12:49:17;4.15;;;1.80;;
8536;SDS011;4306;50.210;10.628;2023-09-19T12:51:46;3.20;;;1.80;;
8536;SDS011;4306;50.210;10.628;2023-09-19T12:54:13;4.63;;;1.80;;
8536;SDS011;4306;50.210;10.628;2023-09-19T12:56:42;3.15;;;1.60;;
8536;SDS011;4306;50.210;10.628;2023-09-19T12:59:11;6.65;;;1.60;;
8536;SDS011;4306;50.210;10.628;2023-09-19T13:01:41;3.92;;;1.92;;
8536;SDS011;4306;50.210;10.628;2023-09-19T13:04:14;3.67;;;1.77;;
8536;SDS011;4306;50.210;10.628;2023-09-19T13:06:45;3.83;;;1.88;;
8536;SDS011;4306;50.210;10.628;2023-09-19T13:09:14;5.25;;;1.70;;
8536;SDS011;4306;50.210;10.628;2023-09-19T13:11:42;5.93;;;1.73;;
8536;SDS011;4306;50.210;10.628;2023-09-19T13:14:15;3.58;;;1.52;;
8536;SDS011;4306;50.210;10.628;2023-09-19T13:16:56;5.85;;;1.58;;
8536;SDS011;4306;50.210;10.628;2023-09-19T13:19:38;4.85;;;1.80;;
8536;SDS011;4306;50.210;10.628;2023-09-19T13:25:06;3.90;;;1.40;;
8536;SDS011;4306;50.210;10.628;2023-09-19T13:27:38;2.88;;;1.30;;
8536;SDS011;4306;50.210;10.628;2023-09-19T13:30:06;3.70;;;1.88;;
8536;SDS011;4306;50.210;10.628;2023-09-19T13:32:34;3.42;;;1.40;;
8536;SDS011;4306;50.210;10.628;2023-09-19T13:35:01;4.13;;;1.92;;
8536;SDS011;4306;50.210;10.628;2023-09-19T13:37:28;4.03;;;1.80;;
8536;SDS011;4306;50.210;10.628;2023-09-19T13:39:56;3.85;;;1.52;;
8536;SDS011;4306;50.210;10.628;2023-09-19T13:42:24;4.22;;;2.13;;
8536;SDS011;4306;50.210;10.628;2023-09-19T13:44:54;3.60;;;1.35;;
8536;SDS011;4306;50.210;10.628;2023-09-19T13:47:21;3.60;;;1.48;;
8536;SDS011;4306;50.210;10.628;2023-09-19T13:49:51;4.43;;;1.65;;
8536;SDS011;4306;50.210;10.628;2023-09-19T13:52:18;3.13;;;1.45;;
8536;SDS011;4306;50.210;10.628;2023-09-19T13:54:47;5.05;;;1.70;;
8536;SDS011;4306;50.210;10.628;2023-09-19T13:57:15;3.53;;;1.52;;
8536;SDS011;4306;50.210;10.628;2023-09-19T13:59:42;13.35;;;1.50;;
8536;SDS011;4306;50.210;10.628;2023-09-19T14:02:09;4.13;;;1.65;;
8536;SDS011;4306;50.210;10.628;2023-09-19T14:04:38;4.10;;;1.33;;
8536;SDS011;4306;50.210;10.628;2023-09-19T14:07:05;3.70;;;1.38;;
8536;SDS011;4306;50.210;10.628;2023-09-19T14:09:34;3.92;;;1.40;;
8536;SDS011;4306;50.210;10.628;2023-09-19T14:12:01;5.07;;;1.50;;
8536;SDS011;4306;50.210;10.628;2023-09-19T14:14:29;4.22;;;1.50;;
8536;SDS011;4306;50.210;10.628;2023-09-19T14:16:56;3.55;;;1.60;;
8536;SDS011;4306;50.210;10.628;2023-09-19T14:19:25;4.32;;;1.77;;
8536;SDS011;4306;50.210;10.628;2023-09-19T14:21:52;3.58;;;1.52;;
8536;SDS011;4306;50.210;10.628;2023-09-19T14:24:20;3.38;;;1.70;;
8536;SDS011;4306;50.210;10.628;2023-09-19T14:26:47;3.63;;;1.65;;
8536;SDS011;4306;50.210;10.628;2023-09-19T14:29:15;3.72;;;1.75;;
8536;SDS011;4306;50.210;10.628;2023-09-19T14:31:44;6.50;;;1.98;;
8536;SDS011;4306;50.210;10.628;2023-09-19T14:34:11;4.60;;;1.55;;
8536;SDS011;4306;50.210;10.628;2023-09-19T14:36:39;4.00;;;1.63;;
8536;SDS011;4306;50.210;10.628;2023-09-19T14:39:06;3.97;;;1.60;;
8536;SDS011;4306;50.210;10.628;2023-09-19T14:41:33;4.65;;;1.80;;
8536;SDS011;4306;50.210;10.628;2023-09-19T14:44:01;2.92;;;1.60;;
8536;SDS011;4306;50.210;10.628;2023-09-19T14:46:29;5.47;;;1.70;;
8536;SDS011;4306;50.210;10.628;2023-09-19T14:48:57;3.72;;;1.90;;
8536;SDS011;4306;50.210;10.628;2023-09-19T14:51:25;4.35;;;1.77;;
8536;SDS011;4306;50.210;10.628;2023-09-19T14:53:52;5.25;;;1.80;;
8536;SDS011;4306;50.210;10.628;2023-09-19T14:56:19;3.45;;;1.80;;
8536;SDS011;4306;50.210;10.628;2023-09-19T14:58:49;4.28;;;1.92;;
8536;SDS011;4306;50.210;10.628;2023-09-19T15:01:16;4.65;;;1.70;;
8536;SDS011;4306;50.210;10.628;2023-09-19T15:03:42;5.63;;;1.55;;
8536;SDS011;4306;50.210;10.628;2023-09-19T15:06:12;4.03;;;1.75;;
8536;SDS011;4306;50.210;10.628;2023-09-19T15:08:43;5.65;;;1.77;;
8536;SDS011;4306;50.210;10.628;2023-09-19T15:11:12;3.75;;;1.40;;
8536;SDS011;4306;50.210;10.628;2023-09-19T15:13:41;3.72;;;1.48;;
8536;SDS011;4306;50.210;10.628;2023-09-19T15:16:10;3.72;;;1.67;;
8536;SDS011;4306;50.210;10.628;2023-09-19T15:18:39;3.10;;;1.48;;
8536;SDS011;4306;50.210;10.628;2023-09-19T15:21:08;3.13;;;1.55;;
8536;SDS011;4306;50.210;10.628;2023-09-19T15:23:37;5.43;;;1.92;;
8536;SDS011;4306;50.210;10.628;2023-09-19T15:26:05;3.95;;;1.60;;
8536;SDS011;4306;50.210;10.628;2023-09-19T15:28:33;4.70;;;1.60;;
8536;SDS011;4306;50.210;10.628;2023-09-19T15:31:02;5.30;;;1.48;;
8536;SDS011;4306;50.210;10.628;2023-09-19T15:33:31;2.95;;;1.40;;
8536;SDS011;4306;50.210;10.628;2023-09-19T15:36:02;3.20;;;1.65;;
8536;SDS011;4306;50.210;10.628;2023-09-19T15:38:30;3.15;;;1.55;;
8536;SDS011;4306;50.210;10.628;2023-09-19T15:40:59;4.00;;;1.52;;
8536;SDS011;4306;50.210;10.628;2023-09-19T15:43:26;2.95;;;1.60;;
8536;SDS011;4306;50.210;10.628;2023-09-19T15:45:53;4.32;;;1.30;;